createdAt,value
2022-08-03T00:00:34.439Z,1011.90
2022-08-03T00:01:34.229Z,1011.91
2022-08-03T00:02:34.311Z,1011.91
2022-08-03T00:03:34.288Z,1011.91
2022-08-03T00:04:34.547Z,1011.91
2022-08-03T00:05:34.364Z,1011.92
2022-08-03T00:06:37.144Z,1011.91
2022-08-03T00:07:34.687Z,1011.92
2022-08-03T00:08:40.177Z,1011.90
2022-08-03T00:09:35.678Z,1011.91
2022-08-03T00:10:34.550Z,1011.89
2022-08-03T00:11:34.582Z,1011.89
2022-08-03T00:12:34.614Z,1011.88
2022-08-03T00:13:34.653Z,1011.88
2022-08-03T00:14:34.943Z,1011.87
2022-08-03T00:15:34.726Z,1011.82
2022-08-03T00:16:34.803Z,1011.81
2022-08-03T00:17:53.531Z,1011.84
2022-08-03T00:18:34.837Z,1011.83
2022-08-03T00:19:34.904Z,1011.84
2022-08-03T00:20:34.905Z,1011.82
2022-08-03T00:21:35.193Z,1011.84
2022-08-03T00:22:34.980Z,1011.82
2022-08-03T00:23:52.257Z,1011.85
2022-08-03T00:24:35.051Z,1011.84
2022-08-03T00:25:35.096Z,1011.84
2022-08-03T00:26:35.153Z,1011.81
2022-08-03T00:27:35.182Z,1011.84
2022-08-03T00:28:35.497Z,1011.84
2022-08-03T00:29:59.680Z,1011.80
2022-08-03T00:30:35.377Z,1011.76
2022-08-03T00:31:51.582Z,1011.76
2022-08-03T00:32:35.340Z,1011.78
2022-08-03T00:33:58.071Z,1011.77
2022-08-03T00:34:57.927Z,1011.79
2022-08-03T00:35:50.426Z,1011.81
2022-08-03T00:37:40.581Z,1011.79
2022-08-03T00:38:35.563Z,1011.78
2022-08-03T00:39:35.599Z,1011.80
2022-08-03T00:40:35.640Z,1011.79
2022-08-03T00:42:36.029Z,1011.81
2022-08-03T00:43:35.756Z,1011.78
2022-08-03T00:44:35.813Z,1011.79
2022-08-03T00:46:35.854Z,1011.81
2022-08-03T00:47:35.889Z,1011.77
2022-08-03T00:49:36.031Z,1011.75
2022-08-03T00:50:36.248Z,1011.74
2022-08-03T00:51:36.032Z,1011.75
2022-08-03T00:52:36.068Z,1011.73
2022-08-03T00:54:36.145Z,1011.73
2022-08-03T00:55:36.181Z,1011.72
2022-08-03T00:56:36.214Z,1011.73
2022-08-03T00:57:36.501Z,1011.72
2022-08-03T00:58:36.286Z,1011.71
2022-08-03T00:59:36.324Z,1011.72
2022-08-03T01:00:36.359Z,1011.70
2022-08-03T01:01:36.445Z,1011.71
2022-08-03T01:02:36.433Z,1011.71
2022-08-03T01:03:36.472Z,1011.70
2022-08-03T01:04:36.807Z,1011.70
2022-08-03T01:05:36.538Z,1011.67
2022-08-03T01:07:36.631Z,1011.70
2022-08-03T01:08:36.649Z,1011.68
2022-08-03T01:09:36.688Z,1011.68
2022-08-03T01:10:36.720Z,1011.69
2022-08-03T01:11:37.065Z,1011.66
2022-08-03T01:12:36.790Z,1011.66
2022-08-03T01:14:03.438Z,1011.66
2022-08-03T01:14:36.866Z,1011.61
2022-08-03T01:15:36.903Z,1011.60
2022-08-03T01:16:37.274Z,1011.63
2022-08-03T01:17:36.973Z,1011.64
2022-08-03T01:18:37.260Z,1011.63
2022-08-03T01:19:37.050Z,1011.58
2022-08-03T01:20:37.132Z,1011.59
2022-08-03T01:21:37.120Z,1011.55
2022-08-03T01:22:37.156Z,1011.56
2022-08-03T01:23:37.191Z,1011.56
2022-08-03T01:24:37.528Z,1011.49
2022-08-03T01:25:37.264Z,1011.54
2022-08-03T01:26:37.297Z,1011.53
2022-08-03T01:28:37.372Z,1011.54
2022-08-03T01:29:37.406Z,1011.60
2022-08-03T01:30:37.694Z,1011.60
2022-08-03T01:32:58.410Z,1011.60
2022-08-03T01:32:59.600Z,1011.60
2022-08-03T01:33:37.551Z,1011.64
2022-08-03T01:34:37.594Z,1011.61
2022-08-03T01:35:38.726Z,1011.63
2022-08-03T01:36:37.961Z,1011.60
2022-08-03T01:37:38.737Z,1011.63
2022-08-03T01:38:37.736Z,1011.62
2022-08-03T01:39:37.767Z,1011.63
2022-08-03T01:40:37.802Z,1011.63
2022-08-03T01:41:37.841Z,1011.57
2022-08-03T01:42:37.878Z,1011.56
2022-08-03T01:43:55.072Z,1011.57
2022-08-03T01:44:37.950Z,1011.61
2022-08-03T01:45:37.992Z,1011.59
2022-08-03T01:46:38.040Z,1011.57
2022-08-03T01:47:38.059Z,1011.57
2022-08-03T01:48:38.099Z,1011.57
2022-08-03T01:49:38.232Z,1011.56
2022-08-03T01:50:38.418Z,1011.57
2022-08-03T01:51:57.941Z,1011.54
2022-08-03T01:52:38.238Z,1011.52
2022-08-03T01:53:38.272Z,1011.52
2022-08-03T01:54:38.311Z,1011.52
2022-08-03T01:55:38.354Z,1011.54
2022-08-03T01:56:38.390Z,1011.48
2022-08-03T01:58:05.268Z,1011.51
2022-08-03T01:58:38.462Z,1011.49
2022-08-03T01:59:38.488Z,1011.46
2022-08-03T02:00:38.603Z,1011.49
2022-08-03T02:02:25.198Z,1011.45
2022-08-03T02:02:38.812Z,1011.47
2022-08-03T02:03:38.652Z,1011.45
2022-08-03T02:04:38.684Z,1011.51
2022-08-03T02:05:38.710Z,1011.45
2022-08-03T02:07:38.779Z,1011.46
2022-08-03T02:08:38.817Z,1011.47
2022-08-03T02:11:38.930Z,1011.52
2022-08-03T02:12:39.257Z,1011.50
2022-08-03T02:14:39.037Z,1011.48
2022-08-03T02:15:39.074Z,1011.46
2022-08-03T02:17:40.307Z,1011.48
2022-08-03T02:18:39.173Z,1011.47
2022-08-03T02:19:39.530Z,1011.44
2022-08-03T02:20:39.272Z,1011.48
2022-08-03T02:21:56.271Z,1011.45
2022-08-03T02:22:39.332Z,1011.45
2022-08-03T02:23:39.356Z,1011.44
2022-08-03T02:24:39.389Z,1011.45
2022-08-03T02:25:39.429Z,1011.44
2022-08-03T02:26:39.716Z,1011.45
2022-08-03T02:27:43.490Z,1011.45
2022-08-03T02:28:39.645Z,1011.46
2022-08-03T02:29:40.954Z,1011.49
2022-08-03T02:30:39.602Z,1011.44
2022-08-03T02:31:39.640Z,1011.48
2022-08-03T02:32:39.676Z,1011.44
2022-08-03T02:33:40.064Z,1011.47
2022-08-03T02:34:39.752Z,1011.45
2022-08-03T02:35:39.795Z,1011.46
2022-08-03T02:36:39.844Z,1011.45
2022-08-03T02:37:41.402Z,1011.41
2022-08-03T02:38:39.897Z,1011.39
2022-08-03T02:39:39.933Z,1011.40
2022-08-03T02:40:40.442Z,1011.41
2022-08-03T02:41:40.002Z,1011.41
2022-08-03T02:42:40.036Z,1011.40
2022-08-03T02:44:06.056Z,1011.38
2022-08-03T02:44:40.115Z,1011.37
2022-08-03T02:46:40.181Z,1011.37
2022-08-03T02:47:54.279Z,1011.39
2022-08-03T02:48:40.257Z,1011.43
2022-08-03T02:49:49.960Z,1011.44
2022-08-03T02:50:40.323Z,1011.46
2022-08-03T02:51:40.606Z,1011.41
2022-08-03T02:52:40.404Z,1011.41
2022-08-03T02:53:40.439Z,1011.43
2022-08-03T02:54:40.729Z,1011.42
2022-08-03T02:55:43.168Z,1011.41
2022-08-03T02:56:40.588Z,1011.40
2022-08-03T02:57:40.573Z,1011.42
2022-08-03T02:58:40.609Z,1011.41
2022-08-03T02:59:40.649Z,1011.43
2022-08-03T03:00:40.849Z,1011.47
2022-08-03T03:01:40.965Z,1011.48
2022-08-03T03:02:40.753Z,1011.44
2022-08-03T03:03:45.040Z,1011.41
2022-08-03T03:05:01.311Z,1011.43
2022-08-03T03:05:53.294Z,1011.47
2022-08-03T03:06:40.895Z,1011.46
2022-08-03T03:07:51.199Z,1011.42
2022-08-03T03:08:41.267Z,1011.43
2022-08-03T03:09:43.252Z,1011.44
2022-08-03T03:10:41.038Z,1011.43
2022-08-03T03:11:41.075Z,1011.46
2022-08-03T03:12:41.120Z,1011.45
2022-08-03T03:13:41.248Z,1011.42
2022-08-03T03:14:41.183Z,1011.41
2022-08-03T03:15:41.479Z,1011.46
2022-08-03T03:16:41.252Z,1011.43
2022-08-03T03:17:41.297Z,1011.44
2022-08-03T03:18:41.331Z,1011.45
2022-08-03T03:19:41.361Z,1011.39
2022-08-03T03:20:41.396Z,1011.46
2022-08-03T03:21:41.433Z,1011.46
2022-08-03T03:22:41.767Z,1011.41
2022-08-03T03:23:41.511Z,1011.41
2022-08-03T03:24:41.541Z,1011.43
2022-08-03T03:25:41.583Z,1011.42
2022-08-03T03:26:42.527Z,1011.45
2022-08-03T03:27:41.651Z,1011.46
2022-08-03T03:28:41.684Z,1011.43
2022-08-03T03:29:41.975Z,1011.42
2022-08-03T03:30:41.767Z,1011.44
2022-08-03T03:31:41.804Z,1011.41
2022-08-03T03:32:41.824Z,1011.45
2022-08-03T03:33:41.860Z,1011.42
2022-08-03T03:34:41.897Z,1011.43
2022-08-03T03:35:42.244Z,1011.41
2022-08-03T03:36:41.970Z,1011.44
2022-08-03T03:37:42.007Z,1011.44
2022-08-03T03:38:42.045Z,1011.41
2022-08-03T03:39:42.078Z,1011.44
2022-08-03T03:40:42.138Z,1011.44
2022-08-03T03:41:42.398Z,1011.45
2022-08-03T03:42:42.293Z,1011.44
2022-08-03T03:43:42.226Z,1011.50
2022-08-03T03:45:42.289Z,1011.48
2022-08-03T03:46:42.326Z,1011.49
2022-08-03T03:47:42.614Z,1011.48
2022-08-03T03:48:42.396Z,1011.48
2022-08-03T03:49:42.434Z,1011.50
2022-08-03T03:50:42.471Z,1011.48
2022-08-03T03:51:42.505Z,1011.50
2022-08-03T03:52:42.547Z,1011.48
2022-08-03T03:53:42.579Z,1011.50
2022-08-03T03:54:42.914Z,1011.50
2022-08-03T03:55:59.389Z,1011.46
2022-08-03T03:56:42.687Z,1011.50
2022-08-03T03:57:42.717Z,1011.51
2022-08-03T03:58:42.763Z,1011.50
2022-08-03T03:59:42.796Z,1011.48
2022-08-03T04:00:42.864Z,1011.48
2022-08-03T04:01:43.162Z,1011.49
2022-08-03T04:02:42.903Z,1011.49
2022-08-03T04:03:42.933Z,1011.50
2022-08-03T04:04:42.970Z,1011.50
2022-08-03T04:05:45.933Z,1011.51
2022-08-03T04:06:43.046Z,1011.51
2022-08-03T04:07:43.100Z,1011.55
2022-08-03T04:08:43.428Z,1011.56
2022-08-03T04:09:43.146Z,1011.55
2022-08-03T04:10:43.185Z,1011.57
2022-08-03T04:11:43.219Z,1011.59
2022-08-03T04:12:50.454Z,1011.57
2022-08-03T04:13:43.289Z,1011.61
2022-08-03T04:14:43.325Z,1011.56
2022-08-03T04:15:43.612Z,1011.57
2022-08-03T04:16:44.081Z,1011.57
2022-08-03T04:17:43.439Z,1011.52
2022-08-03T04:18:43.478Z,1011.54
2022-08-03T04:19:43.509Z,1011.56
2022-08-03T04:21:43.575Z,1011.56
2022-08-03T04:22:43.920Z,1011.57
2022-08-03T04:23:43.648Z,1011.60
2022-08-03T04:24:43.692Z,1011.58
2022-08-03T04:25:43.721Z,1011.58
2022-08-03T04:26:43.756Z,1011.60
2022-08-03T04:27:43.790Z,1011.61
2022-08-03T04:28:43.823Z,1011.64
2022-08-03T04:29:46.381Z,1011.62
2022-08-03T04:30:43.896Z,1011.59
2022-08-03T04:31:43.930Z,1011.61
2022-08-03T04:32:45.940Z,1011.61
2022-08-03T04:33:44.017Z,1011.63
2022-08-03T04:34:44.138Z,1011.58
2022-08-03T04:36:02.266Z,1011.62
2022-08-03T04:36:44.213Z,1011.58
2022-08-03T04:37:44.155Z,1011.60
2022-08-03T04:38:44.182Z,1011.62
2022-08-03T04:39:44.222Z,1011.62
2022-08-03T04:40:44.398Z,1011.64
2022-08-03T04:42:02.331Z,1011.63
2022-08-03T04:42:44.326Z,1011.63
2022-08-03T04:43:44.368Z,1011.63
2022-08-03T04:45:44.432Z,1011.69
2022-08-03T04:46:46.699Z,1011.68
2022-08-03T04:47:44.502Z,1011.68
2022-08-03T04:48:44.946Z,1011.72
2022-08-03T04:49:44.575Z,1011.74
2022-08-03T04:50:44.612Z,1011.74
2022-08-03T04:51:44.644Z,1011.75
2022-08-03T04:52:44.684Z,1011.71
2022-08-03T04:53:44.721Z,1011.74
2022-08-03T04:54:48.761Z,1011.75
2022-08-03T04:55:44.988Z,1011.72
2022-08-03T04:57:44.861Z,1011.73
2022-08-03T04:58:44.899Z,1011.70
2022-08-03T04:59:44.934Z,1011.71
2022-08-03T05:00:45.221Z,1011.74
2022-08-03T05:01:45.100Z,1011.72
2022-08-03T05:02:45.041Z,1011.71
2022-08-03T05:03:45.077Z,1011.73
2022-08-03T05:04:45.150Z,1011.73
2022-08-03T05:05:49.750Z,1011.74
2022-08-03T05:06:48.384Z,1011.72
2022-08-03T05:07:45.218Z,1011.74
2022-08-03T05:08:46.979Z,1011.76
2022-08-03T05:09:50.154Z,1011.77
2022-08-03T05:10:45.325Z,1011.73
2022-08-03T05:11:45.360Z,1011.76
2022-08-03T05:12:45.396Z,1011.80
2022-08-03T05:13:45.680Z,1011.78
2022-08-03T05:14:45.464Z,1011.78
2022-08-03T05:15:45.502Z,1011.78
2022-08-03T05:16:45.537Z,1011.78
2022-08-03T05:17:45.578Z,1011.80
2022-08-03T05:18:45.780Z,1011.77
2022-08-03T05:19:45.648Z,1011.82
2022-08-03T05:20:45.951Z,1011.85
2022-08-03T05:21:51.991Z,1011.86
2022-08-03T05:23:45.805Z,1011.86
2022-08-03T05:24:45.824Z,1011.88
2022-08-03T05:25:49.731Z,1011.88
2022-08-03T05:26:45.920Z,1011.87
2022-08-03T05:27:46.183Z,1011.91
2022-08-03T05:28:50.874Z,1011.88
2022-08-03T05:29:46.001Z,1011.92
2022-08-03T05:30:46.139Z,1011.86
2022-08-03T05:31:46.088Z,1011.90
2022-08-03T05:32:46.114Z,1011.90
2022-08-03T05:33:46.145Z,1011.87
2022-08-03T05:34:46.434Z,1011.89
2022-08-03T05:35:57.348Z,1011.89
2022-08-03T05:36:47.191Z,1011.86
2022-08-03T05:37:54.565Z,1011.86
2022-08-03T05:38:46.325Z,1011.85
2022-08-03T05:39:46.370Z,1011.84
2022-08-03T05:40:46.856Z,1011.86
2022-08-03T05:41:46.431Z,1011.82
2022-08-03T05:42:46.466Z,1011.82
2022-08-03T05:43:46.501Z,1011.79
2022-08-03T05:44:46.540Z,1011.81
2022-08-03T05:46:46.613Z,1011.77
2022-08-03T05:47:46.949Z,1011.81
2022-08-03T05:48:46.682Z,1011.78
2022-08-03T05:49:46.717Z,1011.77
2022-08-03T05:50:46.755Z,1011.74
2022-08-03T05:51:46.791Z,1011.79
2022-08-03T05:52:46.823Z,1011.75
2022-08-03T05:53:47.159Z,1011.79
2022-08-03T05:54:55.308Z,1011.77
2022-08-03T05:55:49.326Z,1011.78
2022-08-03T05:56:46.967Z,1011.82
2022-08-03T05:57:47.003Z,1011.77
2022-08-03T05:58:47.484Z,1011.76
2022-08-03T05:59:53.960Z,1011.74
2022-08-03T06:00:47.110Z,1011.76
2022-08-03T06:01:47.247Z,1011.76
2022-08-03T06:02:47.183Z,1011.75
2022-08-03T06:03:47.218Z,1011.77
2022-08-03T06:04:47.252Z,1011.78
2022-08-03T06:06:00.089Z,1011.78
2022-08-03T06:06:47.333Z,1011.79
2022-08-03T06:07:47.468Z,1011.79
2022-08-03T06:08:47.395Z,1011.78
2022-08-03T06:10:35.310Z,1011.82
2022-08-03T06:10:47.476Z,1011.81
2022-08-03T06:11:47.510Z,1011.83
2022-08-03T06:12:47.944Z,1011.84
2022-08-03T06:13:47.578Z,1011.84
2022-08-03T06:14:47.616Z,1011.88
2022-08-03T06:15:47.647Z,1011.88
2022-08-03T06:16:47.682Z,1011.85
2022-08-03T06:17:47.727Z,1011.84
2022-08-03T06:18:47.766Z,1011.84
2022-08-03T06:19:48.049Z,1011.86
2022-08-03T06:20:49.401Z,1011.86
2022-08-03T06:21:47.869Z,1011.85
2022-08-03T06:22:50.916Z,1011.87
2022-08-03T06:23:54.875Z,1011.86
2022-08-03T06:24:53.521Z,1011.81
2022-08-03T06:25:48.006Z,1011.86
2022-08-03T06:26:48.293Z,1011.84
2022-08-03T06:28:52.777Z,1011.84
2022-08-03T06:29:48.150Z,1011.86
2022-08-03T06:30:48.189Z,1011.84
2022-08-03T06:31:48.234Z,1011.87
2022-08-03T06:32:51.946Z,1011.87
2022-08-03T06:34:32.505Z,1011.87
2022-08-03T06:34:48.332Z,1011.86
2022-08-03T06:35:48.368Z,1011.85
2022-08-03T06:36:48.410Z,1011.89
2022-08-03T06:37:48.437Z,1011.86
2022-08-03T06:38:48.481Z,1011.88
2022-08-03T06:39:48.511Z,1011.89
2022-08-03T06:40:48.825Z,1011.88
2022-08-03T06:41:48.581Z,1011.88
2022-08-03T06:42:48.620Z,1011.87
2022-08-03T06:44:02.958Z,1011.88
2022-08-03T06:44:48.692Z,1011.87
2022-08-03T06:45:48.725Z,1011.90
2022-08-03T06:46:48.763Z,1011.87
2022-08-03T06:47:49.209Z,1011.90
2022-08-03T06:48:48.839Z,1011.88
2022-08-03T06:50:12.592Z,1011.88
2022-08-03T06:50:48.919Z,1011.88
2022-08-03T06:52:04.442Z,1011.90
2022-08-03T06:52:48.982Z,1011.93
2022-08-03T06:53:49.012Z,1011.92
2022-08-03T06:54:49.302Z,1011.96
2022-08-03T06:55:54.176Z,1011.94
2022-08-03T06:56:49.126Z,1011.94
2022-08-03T06:57:49.159Z,1011.93
2022-08-03T06:58:49.195Z,1011.94
2022-08-03T07:00:07.918Z,1011.93
2022-08-03T07:00:49.281Z,1011.94
2022-08-03T07:01:49.712Z,1011.97
2022-08-03T07:02:49.343Z,1011.95
2022-08-03T07:04:49.413Z,1011.93
2022-08-03T07:05:49.472Z,1011.91
2022-08-03T07:06:49.484Z,1011.94
2022-08-03T07:07:49.524Z,1011.92
2022-08-03T07:08:52.903Z,1011.96
2022-08-03T07:09:57.558Z,1011.94
2022-08-03T07:11:49.693Z,1011.95
2022-08-03T07:12:55.717Z,1011.94
2022-08-03T07:14:49.777Z,1011.92
2022-08-03T07:15:55.430Z,1011.92
2022-08-03T07:16:49.856Z,1011.94
2022-08-03T07:18:49.918Z,1011.95
2022-08-03T07:19:49.951Z,1011.95
2022-08-03T07:20:49.989Z,1011.96
2022-08-03T07:21:50.278Z,1011.98
2022-08-03T07:22:50.061Z,1011.97
2022-08-03T07:24:50.139Z,1012.00
2022-08-03T07:25:50.481Z,1011.98
2022-08-03T07:26:50.209Z,1012.05
2022-08-03T07:28:50.528Z,1012.02
2022-08-03T07:29:50.312Z,1012.05
2022-08-03T07:30:50.352Z,1012.02
2022-08-03T07:31:50.391Z,1011.99
2022-08-03T07:32:50.893Z,1012.03
2022-08-03T07:33:50.461Z,1012.01
2022-08-03T07:34:50.754Z,1012.03
2022-08-03T07:35:50.536Z,1012.03
2022-08-03T07:36:50.568Z,1011.99
2022-08-03T07:37:54.086Z,1012.02
2022-08-03T07:39:50.701Z,1012.04
2022-08-03T07:40:50.715Z,1012.02
2022-08-03T07:41:50.999Z,1012.02
2022-08-03T07:42:52.146Z,1012.03
2022-08-03T07:43:50.850Z,1012.03
2022-08-03T07:44:50.867Z,1012.03
2022-08-03T07:45:50.897Z,1012.02
2022-08-03T07:46:50.933Z,1012.08
2022-08-03T07:47:53.793Z,1012.00
2022-08-03T07:48:51.318Z,1012.01
2022-08-03T07:49:51.046Z,1012.00
2022-08-03T07:50:51.083Z,1012.00
2022-08-03T07:51:51.120Z,1012.01
2022-08-03T07:52:51.152Z,1012.00
2022-08-03T07:53:51.197Z,1011.97
2022-08-03T07:54:51.231Z,1011.97
2022-08-03T07:55:51.516Z,1011.98
2022-08-03T07:56:51.327Z,1011.97
2022-08-03T07:57:51.334Z,1011.99
2022-08-03T07:58:51.371Z,1011.98
2022-08-03T08:00:01.404Z,1011.94
2022-08-03T08:00:51.491Z,1011.93
2022-08-03T08:01:51.578Z,1011.93
2022-08-03T08:02:51.772Z,1011.94
2022-08-03T08:03:52.711Z,1011.93
2022-08-03T08:04:51.590Z,1011.93
2022-08-03T08:05:51.624Z,1011.94
2022-08-03T08:06:51.662Z,1011.91
2022-08-03T08:08:51.731Z,1011.96
2022-08-03T08:09:52.070Z,1011.95
2022-08-03T08:10:56.902Z,1011.90
2022-08-03T08:11:51.861Z,1011.91
2022-08-03T08:12:51.890Z,1011.91
2022-08-03T08:13:51.920Z,1011.92
2022-08-03T08:14:51.958Z,1011.92
2022-08-03T08:15:51.989Z,1011.92
2022-08-03T08:16:52.426Z,1011.89
2022-08-03T08:17:52.066Z,1011.93
2022-08-03T08:19:53.326Z,1011.92
2022-08-03T08:20:52.173Z,1011.87
2022-08-03T08:22:52.253Z,1011.90
2022-08-03T08:23:57.797Z,1011.90
2022-08-03T08:24:52.315Z,1011.89
2022-08-03T08:25:52.355Z,1011.93
2022-08-03T08:26:52.388Z,1011.88
2022-08-03T08:28:29.013Z,1011.91
2022-08-03T08:28:52.470Z,1011.94
2022-08-03T08:29:55.207Z,1011.90
2022-08-03T08:30:52.845Z,1011.93
2022-08-03T08:31:52.578Z,1011.90
2022-08-03T08:32:52.608Z,1011.92
2022-08-03T08:34:07.962Z,1011.90
2022-08-03T08:34:52.695Z,1011.89
2022-08-03T08:35:52.716Z,1011.87
2022-08-03T08:36:52.757Z,1011.90
2022-08-03T08:37:53.091Z,1011.88
2022-08-03T08:38:53.037Z,1011.87
2022-08-03T08:39:52.863Z,1011.84
2022-08-03T08:40:52.906Z,1011.88
2022-08-03T08:41:53.392Z,1011.91
2022-08-03T08:42:59.299Z,1011.90
2022-08-03T08:43:58.143Z,1011.87
2022-08-03T08:44:53.296Z,1011.86
2022-08-03T08:45:53.088Z,1011.92
2022-08-03T08:46:53.146Z,1011.89
2022-08-03T08:47:55.759Z,1011.90
2022-08-03T08:48:53.356Z,1011.87
2022-08-03T08:50:08.970Z,1011.86
2022-08-03T08:50:53.265Z,1011.88
2022-08-03T08:52:00.555Z,1011.85
2022-08-03T08:52:53.333Z,1011.88
2022-08-03T08:53:53.380Z,1011.86
2022-08-03T08:54:53.441Z,1011.89
2022-08-03T08:55:57.191Z,1011.85
2022-08-03T08:56:53.488Z,1011.88
2022-08-03T08:57:53.522Z,1011.87
2022-08-03T08:58:53.855Z,1011.89
2022-08-03T08:59:57.249Z,1011.90
2022-08-03T09:00:53.686Z,1011.90
2022-08-03T09:01:53.669Z,1011.88
2022-08-03T09:02:53.708Z,1011.87
2022-08-03T09:03:53.745Z,1011.88
2022-08-03T09:04:53.783Z,1011.84
2022-08-03T09:05:56.132Z,1011.84
2022-08-03T09:07:17.665Z,1011.84
2022-08-03T09:07:53.887Z,1011.84
2022-08-03T09:08:53.924Z,1011.84
2022-08-03T09:10:11.295Z,1011.81
2022-08-03T09:10:53.997Z,1011.83
2022-08-03T09:12:01.151Z,1011.86
2022-08-03T09:12:54.068Z,1011.88
2022-08-03T09:13:54.106Z,1011.88
2022-08-03T09:15:14.837Z,1011.87
2022-08-03T09:16:01.128Z,1011.83
2022-08-03T09:16:54.216Z,1011.88
2022-08-03T09:17:54.253Z,1011.87
2022-08-03T09:18:54.588Z,1011.85
2022-08-03T09:20:03.575Z,1011.85
2022-08-03T09:20:54.362Z,1011.86
2022-08-03T09:21:54.397Z,1011.84
2022-08-03T09:22:54.435Z,1011.82
2022-08-03T09:24:02.203Z,1011.77
2022-08-03T09:25:21.679Z,1011.80
2022-08-03T09:25:54.547Z,1011.81
2022-08-03T09:26:54.579Z,1011.78
2022-08-03T09:27:54.619Z,1011.78
2022-08-03T09:29:54.692Z,1011.85
2022-08-03T09:30:55.030Z,1011.85
2022-08-03T09:32:54.806Z,1011.86
2022-08-03T09:33:54.846Z,1011.86
2022-08-03T09:34:58.096Z,1011.88
2022-08-03T09:35:57.485Z,1011.89
2022-08-03T09:36:55.942Z,1011.85
2022-08-03T09:38:12.106Z,1011.83
2022-08-03T09:38:55.022Z,1011.89
2022-08-03T09:39:55.613Z,1011.88
2022-08-03T09:40:59.517Z,1011.88
2022-08-03T09:41:55.132Z,1011.89
2022-08-03T09:42:55.169Z,1011.87
2022-08-03T09:43:55.204Z,1011.88
2022-08-03T09:44:55.492Z,1011.86
2022-08-03T09:45:55.382Z,1011.83
2022-08-03T09:46:55.318Z,1011.78
2022-08-03T09:47:55.404Z,1011.81
2022-08-03T09:48:55.453Z,1011.81
2022-08-03T09:49:55.425Z,1011.82
2022-08-03T09:50:58.688Z,1011.73
2022-08-03T09:52:32.115Z,1011.77
2022-08-03T09:52:55.540Z,1011.73
2022-08-03T09:53:58.528Z,1011.72
2022-08-03T09:54:55.610Z,1011.73
2022-08-03T09:56:36.494Z,1011.74
2022-08-03T09:56:55.679Z,1011.73
2022-08-03T09:57:55.729Z,1011.72
2022-08-03T09:58:56.009Z,1011.74
2022-08-03T10:00:04.435Z,1011.72
2022-08-03T10:00:55.983Z,1011.77
2022-08-03T10:01:55.868Z,1011.78
2022-08-03T10:02:55.903Z,1011.72
2022-08-03T10:04:04.152Z,1011.76
2022-08-03T10:04:55.979Z,1011.80
2022-08-03T10:06:56.048Z,1011.77
2022-08-03T10:07:56.086Z,1011.76
2022-08-03T10:08:56.123Z,1011.74
2022-08-03T10:09:56.172Z,1011.74
2022-08-03T10:10:56.252Z,1011.72
2022-08-03T10:11:56.236Z,1011.68
2022-08-03T10:12:56.521Z,1011.69
2022-08-03T10:13:58.054Z,1011.71
2022-08-03T10:14:56.366Z,1011.67
2022-08-03T10:16:22.880Z,1011.69
2022-08-03T10:16:56.422Z,1011.63
2022-08-03T10:17:56.463Z,1011.66
2022-08-03T10:18:56.491Z,1011.62
2022-08-03T10:19:56.830Z,1011.63
2022-08-03T10:20:56.566Z,1011.64
2022-08-03T10:21:56.615Z,1011.71
2022-08-03T10:22:56.639Z,1011.71
2022-08-03T10:23:56.678Z,1011.68
2022-08-03T10:24:56.718Z,1011.68
2022-08-03T10:26:57.040Z,1011.62
2022-08-03T10:27:56.833Z,1011.62
2022-08-03T10:28:56.864Z,1011.64
2022-08-03T10:29:56.909Z,1011.57
2022-08-03T10:30:56.937Z,1011.57
2022-08-03T10:31:58.152Z,1011.54
2022-08-03T10:32:57.010Z,1011.51
2022-08-03T10:33:57.299Z,1011.49
2022-08-03T10:35:00.239Z,1011.46
2022-08-03T10:35:57.159Z,1011.44
2022-08-03T10:36:57.154Z,1011.42
2022-08-03T10:38:57.233Z,1011.47
2022-08-03T10:39:57.265Z,1011.48
2022-08-03T10:40:59.217Z,1011.45
2022-08-03T10:42:57.526Z,1011.40
2022-08-03T10:43:57.418Z,1011.37
2022-08-03T10:44:57.454Z,1011.37
2022-08-03T10:45:57.553Z,1011.32
2022-08-03T10:46:57.528Z,1011.38
2022-08-03T10:47:57.866Z,1011.35
2022-08-03T10:48:57.681Z,1011.34
2022-08-03T10:49:57.761Z,1011.33
2022-08-03T10:50:57.673Z,1011.33
2022-08-03T10:51:57.710Z,1011.30
2022-08-03T10:52:57.744Z,1011.29
2022-08-03T10:53:57.910Z,1011.25
2022-08-03T10:54:58.278Z,1011.25
2022-08-03T10:55:57.859Z,1011.24
2022-08-03T10:56:58.415Z,1011.24
2022-08-03T10:57:58.760Z,1011.25
2022-08-03T10:59:58.055Z,1011.21
2022-08-03T11:00:58.440Z,1011.21
2022-08-03T11:02:00.023Z,1011.18
2022-08-03T11:02:58.120Z,1011.20
2022-08-03T11:03:58.155Z,1011.17
2022-08-03T11:04:58.208Z,1011.17
2022-08-03T11:05:58.226Z,1011.16
2022-08-03T11:06:58.571Z,1011.17
2022-08-03T11:07:58.320Z,1011.14
2022-08-03T11:08:58.336Z,1011.10
2022-08-03T11:09:58.403Z,1011.11
2022-08-03T11:10:58.462Z,1011.10
2022-08-03T11:11:58.447Z,1011.14
2022-08-03T11:12:58.787Z,1011.13
2022-08-03T11:13:58.524Z,1011.15
2022-08-03T11:14:58.703Z,1011.14
2022-08-03T11:16:00.131Z,1011.15
2022-08-03T11:16:58.634Z,1011.07
2022-08-03T11:17:58.666Z,1011.11
2022-08-03T11:18:58.759Z,1011.10
2022-08-03T11:19:59.120Z,1011.12
2022-08-03T11:20:58.794Z,1011.08
2022-08-03T11:21:58.869Z,1011.10
2022-08-03T11:22:58.864Z,1011.07
2022-08-03T11:24:05.164Z,1011.05
2022-08-03T11:24:58.933Z,1011.10
2022-08-03T11:25:58.967Z,1011.09
2022-08-03T11:27:03.037Z,1011.09
2022-08-03T11:27:59.043Z,1011.06
2022-08-03T11:28:59.078Z,1011.01
2022-08-03T11:29:59.127Z,1011.00
2022-08-03T11:30:59.150Z,1011.03
2022-08-03T11:31:59.208Z,1010.99
2022-08-03T11:32:59.228Z,1011.03
2022-08-03T11:33:59.512Z,1011.01
2022-08-03T11:34:59.300Z,1010.99
2022-08-03T11:35:59.342Z,1011.01
2022-08-03T11:36:59.374Z,1011.04
2022-08-03T11:38:03.025Z,1011.07
2022-08-03T11:38:59.463Z,1011.03
2022-08-03T11:39:59.484Z,1011.01
2022-08-03T11:40:59.771Z,1011.03
2022-08-03T11:41:59.564Z,1011.00
2022-08-03T11:42:59.646Z,1011.05
2022-08-03T11:43:59.632Z,1011.04
2022-08-03T11:44:59.685Z,1011.05
2022-08-03T11:45:59.710Z,1011.02
2022-08-03T11:46:59.749Z,1011.07
2022-08-03T11:48:00.084Z,1011.12
2022-08-03T11:48:59.871Z,1011.08
2022-08-03T11:49:59.856Z,1011.07
2022-08-03T11:50:59.916Z,1010.99
2022-08-03T11:51:59.933Z,1011.00
2022-08-03T11:52:59.977Z,1010.98
2022-08-03T11:54:00.010Z,1010.97
2022-08-03T11:55:00.405Z,1010.99
2022-08-03T11:56:00.098Z,1011.01
2022-08-03T11:57:00.137Z,1011.00
2022-08-03T11:59:09.396Z,1011.05
2022-08-03T11:59:20.154Z,1011.03
2022-08-03T12:00:00.240Z,1011.07
2022-08-03T12:01:00.266Z,1011.01
2022-08-03T12:02:00.601Z,1010.98
2022-08-03T12:05:00.417Z,1011.00
2022-08-03T12:06:00.453Z,1011.04
2022-08-03T12:07:00.592Z,1011.04
2022-08-03T12:08:03.596Z,1011.07
2022-08-03T12:09:00.877Z,1011.08
2022-08-03T12:10:00.684Z,1011.00
2022-08-03T12:11:00.644Z,1011.06
2022-08-03T12:12:01.355Z,1011.04
2022-08-03T12:13:00.769Z,1011.04
2022-08-03T12:14:48.748Z,1011.08
2022-08-03T12:15:00.782Z,1011.05
2022-08-03T12:16:01.125Z,1011.08
2022-08-03T12:17:00.858Z,1011.04
2022-08-03T12:18:01.081Z,1011.04
2022-08-03T12:19:00.936Z,1011.04
2022-08-03T12:20:00.974Z,1010.98
2022-08-03T12:21:01.147Z,1010.99
2022-08-03T12:23:01.404Z,1011.02
2022-08-03T12:24:01.129Z,1010.96
2022-08-03T12:25:01.169Z,1011.03
2022-08-03T12:26:01.194Z,1011.00
2022-08-03T12:27:01.251Z,1010.99
2022-08-03T12:28:01.277Z,1010.97
2022-08-03T12:30:01.347Z,1010.96
2022-08-03T12:31:01.746Z,1010.92
2022-08-03T12:32:01.486Z,1010.94
2022-08-03T12:33:01.462Z,1010.89
2022-08-03T12:34:01.497Z,1010.90
2022-08-03T12:35:02.298Z,1010.88
2022-08-03T12:36:01.573Z,1010.91
2022-08-03T12:37:01.605Z,1010.86
2022-08-03T12:38:01.944Z,1010.86
2022-08-03T12:39:01.687Z,1010.89
2022-08-03T12:40:09.366Z,1010.82
2022-08-03T12:41:01.756Z,1010.85
2022-08-03T12:42:01.800Z,1010.83
2022-08-03T12:43:01.874Z,1010.80
2022-08-03T12:44:01.870Z,1010.78
2022-08-03T12:45:02.211Z,1010.79
2022-08-03T12:46:01.996Z,1010.81
2022-08-03T12:47:01.978Z,1010.87